sensor_id;sensor_type;location;lat;lon;timestamp;pressure;altitude;pressure_sealevel;temperature;humidity
54389;BME280;40975;50.390;8.640;2023-03-23T00:01:30;98216.81;;;12.16;74.87
54389;BME280;40975;50.390;8.640;2023-03-23T00:03:58;98214.50;;;12.13;74.85
54389;BME280;40975;50.390;8.640;2023-03-23T00:06:26;98211.94;;;12.20;74.23
54389;BME280;40975;50.390;8.640;2023-03-23T00:08:52;98203.84;;;12.13;74.58
54389;BME280;40975;50.390;8.640;2023-03-23T00:11:26;98215.97;;;12.16;75.17
54389;BME280;40975;50.390;8.640;2023-03-23T00:13:55;98214.69;;;12.11;75.43
54389;BME280;40975;50.390;8.640;2023-03-23T00:16:24;98220.34;;;12.08;76.31
54389;BME280;40975;50.390;8.640;2023-03-23T00:19:09;98225.84;;;12.07;75.99
54389;BME280;40975;50.390;8.640;2023-03-23T00:21:38;98226.19;;;12.04;76.50
54389;BME280;40975;50.390;8.640;2023-03-23T00:24:10;98215.25;;;11.98;76.94
54389;BME280;40975;50.390;8.640;2023-03-23T00:26:37;98211.09;;;11.96;77.34
54389;BME280;40975;50.390;8.640;2023-03-23T00:29:11;98212.09;;;11.95;78.45
54389;BME280;40975;50.390;8.640;2023-03-23T00:31:39;98209.81;;;11.92;77.97
54389;BME280;40975;50.390;8.640;2023-03-23T00:34:04;98208.69;;;11.86;78.43
54389;BME280;40975;50.390;8.640;2023-03-23T00:36:31;98218.41;;;11.94;77.42
54389;BME280;40975;50.390;8.640;2023-03-23T00:38:58;98200.34;;;11.97;77.19
54389;BME280;40975;50.390;8.640;2023-03-23T00:41:25;98203.47;;;12.01;76.70
54389;BME280;40975;50.390;8.640;2023-03-23T00:43:53;98201.97;;;11.98;77.22
54389;BME280;40975;50.390;8.640;2023-03-23T00:46:18;98193.34;;;11.96;79.21
54389;BME280;40975;50.390;8.640;2023-03-23T00:48:45;98190.84;;;11.95;79.80
54389;BME280;40975;50.390;8.640;2023-03-23T00:51:11;98197.00;;;11.95;79.31
54389;BME280;40975;50.390;8.640;2023-03-23T00:53:41;98194.88;;;11.91;79.91
54389;BME280;40975;50.390;8.640;2023-03-23T00:56:07;98193.50;;;11.95;78.78
54389;BME280;40975;50.390;8.640;2023-03-23T00:58:33;98179.06;;;11.89;81.55
54389;BME280;40975;50.390;8.640;2023-03-23T01:00:58;98189.09;;;11.87;80.72
54389;BME280;40975;50.390;8.640;2023-03-23T01:03:24;98180.84;;;11.74;81.29
54389;BME280;40975;50.390;8.640;2023-03-23T01:05:51;98195.28;;;11.79;81.72
54389;BME280;40975;50.390;8.640;2023-03-23T01:08:18;98189.31;;;11.77;80.97
54389;BME280;40975;50.390;8.640;2023-03-23T01:10:44;98165.78;;;11.66;81.26
54389;BME280;40975;50.390;8.640;2023-03-23T01:13:11;98191.03;;;11.70;81.28
54389;BME280;40975;50.390;8.640;2023-03-23T01:15:36;98186.06;;;11.67;81.32
54389;BME280;40975;50.390;8.640;2023-03-23T01:18:02;98175.75;;;11.64;81.72
54389;BME280;40975;50.390;8.640;2023-03-23T01:20:28;98184.72;;;11.71;80.85
54389;BME280;40975;50.390;8.640;2023-03-23T01:22:57;98184.06;;;11.69;82.63
54389;BME280;40975;50.390;8.640;2023-03-23T01:25:27;98175.06;;;11.70;84.90
54389;BME280;40975;50.390;8.640;2023-03-23T01:27:53;98182.94;;;11.63;87.41
54389;BME280;40975;50.390;8.640;2023-03-23T01:30:19;98184.16;;;11.53;90.41
54389;BME280;40975;50.390;8.640;2023-03-23T01:32:44;98181.91;;;11.41;91.89
54389;BME280;40975;50.390;8.640;2023-03-23T01:35:12;98191.75;;;11.32;93.67
54389;BME280;40975;50.390;8.640;2023-03-23T01:37:37;98187.28;;;11.25;94.23
54389;BME280;40975;50.390;8.640;2023-03-23T01:40:03;98176.19;;;11.21;93.57
54389;BME280;40975;50.390;8.640;2023-03-23T01:42:32;98172.53;;;11.22;92.97
54389;BME280;40975;50.390;8.640;2023-03-23T01:48:04;98173.53;;;11.21;92.66
54389;BME280;40975;50.390;8.640;2023-03-23T01:50:36;98185.34;;;11.18;93.43
54389;BME280;40975;50.390;8.640;2023-03-23T01:53:05;98186.16;;;11.19;94.86
54389;BME280;40975;50.390;8.640;2023-03-23T01:55:34;98178.38;;;11.17;94.20
54389;BME280;40975;50.390;8.640;2023-03-23T01:58:01;98172.72;;;11.20;91.77
54389;BME280;40975;50.390;8.640;2023-03-23T02:00:27;98162.75;;;11.23;91.39
54389;BME280;40975;50.390;8.640;2023-03-23T02:02:53;98156.53;;;11.30;90.59
54389;BME280;40975;50.390;8.640;2023-03-23T02:05:26;98152.38;;;11.36;89.26
54389;BME280;40975;50.390;8.640;2023-03-23T02:07:56;98154.03;;;11.37;89.80
54389;BME280;40975;50.390;8.640;2023-03-23T02:10:25;98156.88;;;11.35;89.76
54389;BME280;40975;50.390;8.640;2023-03-23T02:12:51;98155.38;;;11.33;91.41
54389;BME280;40975;50.390;8.640;2023-03-23T02:15:16;98165.19;;;11.32;90.61
54389;BME280;40975;50.390;8.640;2023-03-23T02:17:57;98161.03;;;11.30;91.02
54389;BME280;40975;50.390;8.640;2023-03-23T02:20:43;98161.84;;;11.30;89.96
54389;BME280;40975;50.390;8.640;2023-03-23T02:23:26;98149.75;;;11.28;90.88
54389;BME280;40975;50.390;8.640;2023-03-23T02:26:17;98131.66;;;11.31;89.77
54389;BME280;40975;50.390;8.640;2023-03-23T02:32:01;98130.47;;;11.34;89.69
54389;BME280;40975;50.390;8.640;2023-03-23T02:37:27;98141.09;;;11.34;88.89
54389;BME280;40975;50.390;8.640;2023-03-23T02:39:58;98146.25;;;11.35;88.43
54389;BME280;40975;50.390;8.640;2023-03-23T02:42:33;98139.44;;;11.33;89.06
54389;BME280;40975;50.390;8.640;2023-03-23T02:45:04;98120.84;;;11.33;88.37
54389;BME280;40975;50.390;8.640;2023-03-23T02:47:31;98126.00;;;11.34;87.84
54389;BME280;40975;50.390;8.640;2023-03-23T02:49:58;98127.81;;;11.34;87.38
54389;BME280;40975;50.390;8.640;2023-03-23T02:52:29;98128.00;;;11.32;88.00
54389;BME280;40975;50.390;8.640;2023-03-23T02:54:57;98125.34;;;11.32;88.88
54389;BME280;40975;50.390;8.640;2023-03-23T02:57:27;98128.31;;;11.29;88.54
54389;BME280;40975;50.390;8.640;2023-03-23T02:59:55;98137.28;;;11.28;89.60
54389;BME280;40975;50.390;8.640;2023-03-23T03:02:27;98141.13;;;11.26;91.85
54389;BME280;40975;50.390;8.640;2023-03-23T03:05:04;98149.97;;;11.18;95.03
54389;BME280;40975;50.390;8.640;2023-03-23T03:10:44;98150.91;;;10.94;100.00
54389;BME280;40975;50.390;8.640;2023-03-23T03:13:33;98140.84;;;10.81;100.00
54389;BME280;40975;50.390;8.640;2023-03-23T03:16:14;98133.75;;;10.73;100.00
54389;BME280;40975;50.390;8.640;2023-03-23T03:21:16;98124.22;;;10.47;100.00
54389;BME280;40975;50.390;8.640;2023-03-23T03:23:46;98128.38;;;10.41;100.00
54389;BME280;40975;50.390;8.640;2023-03-23T03:26:15;98125.06;;;10.31;100.00
54389;BME280;40975;50.390;8.640;2023-03-23T03:28:48;98129.06;;;10.27;100.00
54389;BME280;40975;50.390;8.640;2023-03-23T03:31:18;98116.63;;;10.19;100.00
54389;BME280;40975;50.390;8.640;2023-03-23T03:33:45;98117.16;;;10.15;100.00
54389;BME280;40975;50.390;8.640;2023-03-23T03:36:15;98120.16;;;10.03;100.00
54389;BME280;40975;50.390;8.640;2023-03-23T03:38:47;98119.47;;;10.01;100.00
54389;BME280;40975;50.390;8.640;2023-03-23T03:41:13;98128.91;;;9.95;100.00
54389;BME280;40975;50.390;8.640;2023-03-23T03:43:39;98120.00;;;9.80;100.00
54389;BME280;40975;50.390;8.640;2023-03-23T03:46:04;98135.88;;;9.88;100.00
54389;BME280;40975;50.390;8.640;2023-03-23T03:48:31;98136.88;;;9.87;100.00
54389;BME280;40975;50.390;8.640;2023-03-23T03:50:57;98132.75;;;9.93;100.00
54389;BME280;40975;50.390;8.640;2023-03-23T03:53:26;98125.13;;;9.90;100.00
54389;BME280;40975;50.390;8.640;2023-03-23T03:55:52;98122.47;;;9.90;100.00
54389;BME280;40975;50.390;8.640;2023-03-23T03:58:21;98124.13;;;9.91;100.00
54389;BME280;40975;50.390;8.640;2023-03-23T04:01:05;98119.19;;;9.88;100.00
54389;BME280;40975;50.390;8.640;2023-03-23T04:03:36;98128.59;;;9.90;100.00
54389;BME280;40975;50.390;8.640;2023-03-23T04:06:13;98133.56;;;9.93;100.00
54389;BME280;40975;50.390;8.640;2023-03-23T04:08:39;98131.09;;;9.92;100.00
54389;BME280;40975;50.390;8.640;2023-03-23T04:11:07;98144.16;;;9.93;100.00
54389;BME280;40975;50.390;8.640;2023-03-23T04:13:33;98132.41;;;9.96;100.00
54389;BME280;40975;50.390;8.640;2023-03-23T04:16:18;98144.00;;;9.95;100.00
54389;BME280;40975;50.390;8.640;2023-03-23T04:18:45;98142.00;;;9.89;100.00
54389;BME280;40975;50.390;8.640;2023-03-23T04:21:13;98151.63;;;9.90;100.00
54389;BME280;40975;50.390;8.640;2023-03-23T04:23:39;98163.22;;;9.89;100.00
54389;BME280;40975;50.390;8.640;2023-03-23T04:26:06;98154.28;;;9.82;100.00
54389;BME280;40975;50.390;8.640;2023-03-23T04:28:39;98153.28;;;9.74;100.00
54389;BME280;40975;50.390;8.640;2023-03-23T04:31:24;98158.22;;;9.69;100.00
54389;BME280;40975;50.390;8.640;2023-03-23T04:33:54;98152.13;;;9.69;100.00
54389;BME280;40975;50.390;8.640;2023-03-23T04:36:22;98153.44;;;9.64;100.00
54389;BME280;40975;50.390;8.640;2023-03-23T04:38:57;98154.28;;;9.65;100.00
54389;BME280;40975;50.390;8.640;2023-03-23T04:41:24;98168.16;;;9.51;100.00
54389;BME280;40975;50.390;8.640;2023-03-23T04:44:08;98156.06;;;9.56;100.00
54389;BME280;40975;50.390;8.640;2023-03-23T04:46:54;98164.69;;;9.58;100.00
54389;BME280;40975;50.390;8.640;2023-03-23T04:49:21;98161.06;;;9.68;100.00
54389;BME280;40975;50.390;8.640;2023-03-23T04:51:50;98159.41;;;9.75;100.00
54389;BME280;40975;50.390;8.640;2023-03-23T04:54:24;98154.09;;;9.75;100.00
54389;BME280;40975;50.390;8.640;2023-03-23T04:56:54;98154.75;;;9.85;100.00
54389;BME280;40975;50.390;8.640;2023-03-23T04:59:19;98150.63;;;9.91;100.00
54389;BME280;40975;50.390;8.640;2023-03-23T05:01:54;98155.13;;;9.90;100.00
54389;BME280;40975;50.390;8.640;2023-03-23T05:04:22;98155.91;;;9.99;100.00
54389;BME280;40975;50.390;8.640;2023-03-23T05:06:59;98157.75;;;9.99;100.00
54389;BME280;40975;50.390;8.640;2023-03-23T05:09:28;98154.59;;;10.03;100.00
54389;BME280;40975;50.390;8.640;2023-03-23T05:11:54;98156.75;;;10.08;100.00
54389;BME280;40975;50.390;8.640;2023-03-23T05:14:20;98148.00;;;10.07;100.00
54389;BME280;40975;50.390;8.640;2023-03-23T05:16:54;98151.44;;;10.08;100.00
54389;BME280;40975;50.390;8.640;2023-03-23T05:19:20;98146.16;;;10.08;100.00
54389;BME280;40975;50.390;8.640;2023-03-23T05:21:46;98137.03;;;10.02;100.00
54389;BME280;40975;50.390;8.640;2023-03-23T05:24:12;98150.97;;;10.04;100.00
54389;BME280;40975;50.390;8.640;2023-03-23T05:26:38;98145.66;;;10.04;100.00
54389;BME280;40975;50.390;8.640;2023-03-23T05:29:12;98138.19;;;10.08;100.00
54389;BME280;40975;50.390;8.640;2023-03-23T05:31:45;98133.56;;;10.10;100.00
54389;BME280;40975;50.390;8.640;2023-03-23T05:34:11;98132.91;;;10.08;100.00
54389;BME280;40975;50.390;8.640;2023-03-23T05:36:45;98130.06;;;10.09;100.00
54389;BME280;40975;50.390;8.640;2023-03-23T05:39:19;98136.22;;;10.10;100.00
54389;BME280;40975;50.390;8.640;2023-03-23T05:42:04;98139.00;;;10.08;100.00
54389;BME280;40975;50.390;8.640;2023-03-23T05:44:42;98146.63;;;10.11;100.00
54389;BME280;40975;50.390;8.640;2023-03-23T05:47:09;98157.09;;;10.13;100.00
54389;BME280;40975;50.390;8.640;2023-03-23T05:49:38;98157.09;;;10.21;100.00
54389;BME280;40975;50.390;8.640;2023-03-23T05:52:06;98163.69;;;10.25;100.00
54389;BME280;40975;50.390;8.640;2023-03-23T05:54:32;98166.00;;;10.29;100.00
54389;BME280;40975;50.390;8.640;2023-03-23T05:57:00;98163.53;;;10.27;100.00
54389;BME280;40975;50.390;8.640;2023-03-23T05:59:36;98162.69;;;10.26;100.00
54389;BME280;40975;50.390;8.640;2023-03-23T06:02:04;98162.84;;;10.33;100.00
54389;BME280;40975;50.390;8.640;2023-03-23T06:04:30;98154.56;;;10.36;100.00
54389;BME280;40975;50.390;8.640;2023-03-23T06:07:10;98144.78;;;10.37;100.00
54389;BME280;40975;50.390;8.640;2023-03-23T06:09:42;98138.50;;;10.38;100.00
54389;BME280;40975;50.390;8.640;2023-03-23T06:12:22;98154.25;;;10.39;100.00
54389;BME280;40975;50.390;8.640;2023-03-23T06:15:04;98159.22;;;10.42;100.00
54389;BME280;40975;50.390;8.640;2023-03-23T06:17:51;98160.38;;;10.48;100.00
54389;BME280;40975;50.390;8.640;2023-03-23T06:20:23;98153.06;;;10.34;100.00
54389;BME280;40975;50.390;8.640;2023-03-23T06:22:50;98169.50;;;10.46;100.00
54389;BME280;40975;50.390;8.640;2023-03-23T06:25:25;98146.44;;;10.46;100.00
54389;BME280;40975;50.390;8.640;2023-03-23T06:27:51;98153.72;;;10.44;100.00
54389;BME280;40975;50.390;8.640;2023-03-23T06:30:17;98164.97;;;10.54;100.00
54389;BME280;40975;50.390;8.640;2023-03-23T06:32:44;98158.03;;;10.62;100.00
54389;BME280;40975;50.390;8.640;2023-03-23T06:35:13;98171.25;;;10.70;100.00
54389;BME280;40975;50.390;8.640;2023-03-23T06:37:55;98172.69;;;10.81;100.00
54389;BME280;40975;50.390;8.640;2023-03-23T06:40:34;98181.00;;;10.86;100.00
54389;BME280;40975;50.390;8.640;2023-03-23T06:43:01;98172.47;;;10.99;100.00
54389;BME280;40975;50.390;8.640;2023-03-23T06:45:45;98182.25;;;10.98;100.00
54389;BME280;40975;50.390;8.640;2023-03-23T06:48:34;98183.28;;;10.97;100.00
54389;BME280;40975;50.390;8.640;2023-03-23T06:51:00;98184.28;;;10.96;100.00
54389;BME280;40975;50.390;8.640;2023-03-23T06:53:27;98197.06;;;10.93;100.00
54389;BME280;40975;50.390;8.640;2023-03-23T06:55:55;98211.34;;;10.92;100.00
54389;BME280;40975;50.390;8.640;2023-03-23T06:58:20;98206.03;;;10.92;100.00
54389;BME280;40975;50.390;8.640;2023-03-23T07:00:46;98200.34;;;10.95;100.00
54389;BME280;40975;50.390;8.640;2023-03-23T07:03:14;98202.34;;;11.01;100.00
54389;BME280;40975;50.390;8.640;2023-03-23T07:05:39;98199.50;;;11.02;100.00
54389;BME280;40975;50.390;8.640;2023-03-23T07:08:07;98186.91;;;11.04;100.00
54389;BME280;40975;50.390;8.640;2023-03-23T07:10:40;98186.56;;;11.08;100.00
54389;BME280;40975;50.390;8.640;2023-03-23T07:13:07;98180.25;;;11.00;100.00
54389;BME280;40975;50.390;8.640;2023-03-23T07:15:42;98178.59;;;10.99;100.00
54389;BME280;40975;50.390;8.640;2023-03-23T07:18:09;98194.38;;;11.01;100.00
54389;BME280;40975;50.390;8.640;2023-03-23T07:20:41;98201.88;;;10.97;100.00
54389;BME280;40975;50.390;8.640;2023-03-23T07:23:07;98203.34;;;11.00;100.00
54389;BME280;40975;50.390;8.640;2023-03-23T07:25:43;98190.72;;;11.02;100.00
54389;BME280;40975;50.390;8.640;2023-03-23T07:28:12;98178.78;;;10.98;100.00
54389;BME280;40975;50.390;8.640;2023-03-23T07:30:38;98192.06;;;10.98;100.00
54389;BME280;40975;50.390;8.640;2023-03-23T07:33:05;98198.50;;;11.03;100.00
54389;BME280;40975;50.390;8.640;2023-03-23T07:35:32;98201.00;;;11.05;100.00
54389;BME280;40975;50.390;8.640;2023-03-23T07:38:03;98206.78;;;11.09;100.00
54389;BME280;40975;50.390;8.640;2023-03-23T07:40:30;98212.22;;;11.15;100.00
54389;BME280;40975;50.390;8.640;2023-03-23T07:43:01;98222.34;;;11.20;100.00
54389;BME280;40975;50.390;8.640;2023-03-23T07:45:37;98217.22;;;11.18;100.00
54389;BME280;40975;50.390;8.640;2023-03-23T07:48:03;98227.97;;;11.25;100.00
54389;BME280;40975;50.390;8.640;2023-03-23T07:50:29;98231.81;;;11.23;100.00
54389;BME280;40975;50.390;8.640;2023-03-23T07:52:57;98222.81;;;11.24;100.00
54389;BME280;40975;50.390;8.640;2023-03-23T07:55:24;98223.00;;;11.22;100.00
54389;BME280;40975;50.390;8.640;2023-03-23T07:58:06;98213.06;;;11.16;100.00
54389;BME280;40975;50.390;8.640;2023-03-23T08:00:31;98226.66;;;11.21;100.00
54389;BME280;40975;50.390;8.640;2023-03-23T08:02:57;98219.16;;;11.25;100.00
54389;BME280;40975;50.390;8.640;2023-03-23T08:05:35;98219.47;;;11.30;100.00
54389;BME280;40975;50.390;8.640;2023-03-23T08:08:20;98226.28;;;11.32;100.00
54389;BME280;40975;50.390;8.640;2023-03-23T08:11:25;98230.59;;;11.33;100.00
54389;BME280;40975;50.390;8.640;2023-03-23T08:14:20;98245.03;;;11.31;100.00
54389;BME280;40975;50.390;8.640;2023-03-23T08:17:11;98255.50;;;11.32;100.00
54389;BME280;40975;50.390;8.640;2023-03-23T08:19:47;98252.84;;;11.32;100.00
54389;BME280;40975;50.390;8.640;2023-03-23T08:22:42;98247.00;;;11.37;100.00
54389;BME280;40975;50.390;8.640;2023-03-23T08:25:48;98251.97;;;11.40;100.00
54389;BME280;40975;50.390;8.640;2023-03-23T08:28:33;98254.78;;;11.39;100.00
54389;BME280;40975;50.390;8.640;2023-03-23T08:31:09;98253.28;;;11.44;100.00
54389;BME280;40975;50.390;8.640;2023-03-23T08:34:02;98259.91;;;11.48;100.00
54389;BME280;40975;50.390;8.640;2023-03-23T08:36:50;98260.72;;;11.49;100.00
54389;BME280;40975;50.390;8.640;2023-03-23T08:39:34;98268.34;;;11.52;100.00
54389;BME280;40975;50.390;8.640;2023-03-23T08:42:24;98280.31;;;11.56;100.00
54389;BME280;40975;50.390;8.640;2023-03-23T08:45:06;98287.91;;;11.59;100.00
54389;BME280;40975;50.390;8.640;2023-03-23T08:48:00;98277.59;;;11.64;100.00
54389;BME280;40975;50.390;8.640;2023-03-23T08:50:49;98285.44;;;11.58;100.00
54389;BME280;40975;50.390;8.640;2023-03-23T08:53:33;98285.72;;;11.63;100.00
54389;BME280;40975;50.390;8.640;2023-03-23T08:56:27;98289.03;;;11.65;100.00
54389;BME280;40975;50.390;8.640;2023-03-23T08:59:21;98290.38;;;11.69;100.00
54389;BME280;40975;50.390;8.640;2023-03-23T09:02:05;98282.53;;;11.76;100.00
54389;BME280;40975;50.390;8.640;2023-03-23T09:04:40;98282.47;;;11.84;100.00
54389;BME280;40975;50.390;8.640;2023-03-23T09:07:42;98278.94;;;11.92;100.00
54389;BME280;40975;50.390;8.640;2023-03-23T09:10:08;98275.59;;;11.98;100.00
54389;BME280;40975;50.390;8.640;2023-03-23T09:12:35;98264.63;;;12.01;100.00
54389;BME280;40975;50.390;8.640;2023-03-23T09:15:02;98257.78;;;12.07;100.00
54389;BME280;40975;50.390;8.640;2023-03-23T09:17:34;98261.06;;;12.09;100.00
54389;BME280;40975;50.390;8.640;2023-03-23T09:20:00;98263.69;;;12.17;100.00
54389;BME280;40975;50.390;8.640;2023-03-23T09:22:25;98261.59;;;12.27;100.00
54389;BME280;40975;50.390;8.640;2023-03-23T09:24:51;98260.53;;;12.37;100.00
54389;BME280;40975;50.390;8.640;2023-03-23T09:27:17;98257.25;;;12.50;100.00
54389;BME280;40975;50.390;8.640;2023-03-23T09:29:42;98264.38;;;12.72;100.00
54389;BME280;40975;50.390;8.640;2023-03-23T09:32:09;98258.03;;;12.73;100.00
54389;BME280;40975;50.390;8.640;2023-03-23T09:34:35;98259.97;;;12.80;98.82
54389;BME280;40975;50.390;8.640;2023-03-23T09:37:01;98271.28;;;12.82;98.94
54389;BME280;40975;50.390;8.640;2023-03-23T09:39:30;98272.00;;;12.90;99.15
54389;BME280;40975;50.390;8.640;2023-03-23T09:45:06;98281.09;;;12.96;97.72
54389;BME280;40975;50.390;8.640;2023-03-23T09:47:49;98296.16;;;12.89;99.80
54389;BME280;40975;50.390;8.640;2023-03-23T09:50:24;98285.59;;;12.81;100.00
54389;BME280;40975;50.390;8.640;2023-03-23T09:52:56;98282.34;;;12.70;100.00
54389;BME280;40975;50.390;8.640;2023-03-23T09:55:22;98281.47;;;12.55;100.00
54389;BME280;40975;50.390;8.640;2023-03-23T10:00:37;98290.72;;;12.44;100.00
54389;BME280;40975;50.390;8.640;2023-03-23T10:03:13;98291.75;;;12.43;100.00
54389;BME280;40975;50.390;8.640;2023-03-23T10:08:17;98298.94;;;12.57;100.00
54389;BME280;40975;50.390;8.640;2023-03-23T10:13:47;98301.66;;;12.26;100.00
54389;BME280;40975;50.390;8.640;2023-03-23T10:16:37;98309.78;;;12.09;100.00
54389;BME280;40975;50.390;8.640;2023-03-23T10:19:11;98315.69;;;12.20;100.00
54389;BME280;40975;50.390;8.640;2023-03-23T10:21:41;98319.94;;;12.29;100.00
54389;BME280;40975;50.390;8.640;2023-03-23T10:24:10;98292.56;;;12.43;100.00
54389;BME280;40975;50.390;8.640;2023-03-23T10:26:54;98297.88;;;12.67;100.00
54389;BME280;40975;50.390;8.640;2023-03-23T10:29:30;98311.84;;;12.84;100.00
54389;BME280;40975;50.390;8.640;2023-03-23T10:32:37;98309.13;;;13.07;100.00
54389;BME280;40975;50.390;8.640;2023-03-23T10:35:09;98309.22;;;13.14;100.00
54389;BME280;40975;50.390;8.640;2023-03-23T10:37:44;98304.88;;;12.98;100.00
54389;BME280;40975;50.390;8.640;2023-03-23T10:40:16;98302.78;;;13.08;100.00
54389;BME280;40975;50.390;8.640;2023-03-23T10:42:43;98292.19;;;12.85;100.00
54389;BME280;40975;50.390;8.640;2023-03-23T10:45:21;98301.94;;;12.93;100.00
54389;BME280;40975;50.390;8.640;2023-03-23T10:47:52;98295.63;;;12.94;100.00
54389;BME280;40975;50.390;8.640;2023-03-23T10:50:48;98300.03;;;12.86;100.00
54389;BME280;40975;50.390;8.640;2023-03-23T10:53:45;98298.81;;;12.89;100.00
54389;BME280;40975;50.390;8.640;2023-03-23T10:56:24;98298.66;;;13.05;100.00
54389;BME280;40975;50.390;8.640;2023-03-23T10:58:51;98291.66;;;13.19;99.27
54389;BME280;40975;50.390;8.640;2023-03-23T11:01:19;98285.88;;;13.31;96.63
54389;BME280;40975;50.390;8.640;2023-03-23T11:03:49;98276.13;;;13.38;95.04
54389;BME280;40975;50.390;8.640;2023-03-23T11:06:20;98278.16;;;13.66;92.45
54389;BME280;40975;50.390;8.640;2023-03-23T11:08:51;98279.00;;;13.88;90.49
54389;BME280;40975;50.390;8.640;2023-03-23T11:11:20;98284.94;;;14.05;86.84
54389;BME280;40975;50.390;8.640;2023-03-23T11:13:52;98276.25;;;14.40;87.42
54389;BME280;40975;50.390;8.640;2023-03-23T11:16:24;98292.63;;;14.80;87.07
54389;BME280;40975;50.390;8.640;2023-03-23T11:18:50;98302.28;;;14.81;87.42
54389;BME280;40975;50.390;8.640;2023-03-23T11:21:17;98297.78;;;15.17;84.64
54389;BME280;40975;50.390;8.640;2023-03-23T11:23:53;98298.41;;;15.19;82.63
54389;BME280;40975;50.390;8.640;2023-03-23T11:26:28;98307.81;;;15.50;83.12
54389;BME280;40975;50.390;8.640;2023-03-23T11:29:09;98306.97;;;15.43;82.27
54389;BME280;40975;50.390;8.640;2023-03-23T11:31:40;98292.72;;;15.29;80.83
54389;BME280;40975;50.390;8.640;2023-03-23T11:34:17;98292.66;;;14.87;83.47
54389;BME280;40975;50.390;8.640;2023-03-23T11:42:35;98311.84;;;13.89;86.70
54389;BME280;40975;50.390;8.640;2023-03-23T11:50:27;98315.19;;;13.61;88.62
54389;BME280;40975;50.390;8.640;2023-03-23T11:53:12;98322.75;;;13.57;91.01
54389;BME280;40975;50.390;8.640;2023-03-23T11:58:15;98322.72;;;13.27;91.87
54389;BME280;40975;50.390;8.640;2023-03-23T12:00:54;98325.13;;;13.22;92.66
54389;BME280;40975;50.390;8.640;2023-03-23T12:03:21;98313.06;;;13.11;92.97
54389;BME280;40975;50.390;8.640;2023-03-23T12:06:02;98315.09;;;13.09;93.69
54389;BME280;40975;50.390;8.640;2023-03-23T12:14:14;98304.34;;;13.02;93.66
54389;BME280;40975;50.390;8.640;2023-03-23T12:19:48;98300.31;;;13.06;93.47
54389;BME280;40975;50.390;8.640;2023-03-23T12:22:30;98287.19;;;13.05;93.34
54389;BME280;40975;50.390;8.640;2023-03-23T12:33:16;98278.53;;;13.33;91.24
54389;BME280;40975;50.390;8.640;2023-03-23T12:38:27;98272.53;;;13.61;89.67
54389;BME280;40975;50.390;8.640;2023-03-23T12:41:09;98265.38;;;13.61;88.45
54389;BME280;40975;50.390;8.640;2023-03-23T12:51:35;98253.06;;;13.97;87.53
54389;BME280;40975;50.390;8.640;2023-03-23T12:54:24;98270.75;;;14.05;88.64
54389;BME280;40975;50.390;8.640;2023-03-23T12:57:01;98274.72;;;14.30;87.44
54389;BME280;40975;50.390;8.640;2023-03-23T12:59:52;98278.84;;;14.33;85.87
54389;BME280;40975;50.390;8.640;2023-03-23T13:02:31;98267.59;;;14.38;86.59
54389;BME280;40975;50.390;8.640;2023-03-23T13:05:03;98259.81;;;14.43;85.89
54389;BME280;40975;50.390;8.640;2023-03-23T13:07:36;98267.97;;;14.35;85.72
54389;BME280;40975;50.390;8.640;2023-03-23T13:10:06;98263.44;;;14.57;85.19
54389;BME280;40975;50.390;8.640;2023-03-23T13:12:34;98249.06;;;14.58;86.22
54389;BME280;40975;50.390;8.640;2023-03-23T13:15:24;98259.25;;;14.48;86.82
54389;BME280;40975;50.390;8.640;2023-03-23T13:18:12;98265.19;;;14.21;86.77
54389;BME280;40975;50.390;8.640;2023-03-23T13:20:59;98273.88;;;14.30;88.53
54389;BME280;40975;50.390;8.640;2023-03-23T13:23:39;98259.97;;;14.35;88.49
54389;BME280;40975;50.390;8.640;2023-03-23T13:26:09;98273.00;;;14.44;89.57
54389;BME280;40975;50.390;8.640;2023-03-23T13:28:57;98258.72;;;14.09;86.36
54389;BME280;40975;50.390;8.640;2023-03-23T13:33:59;98263.25;;;14.37;87.84
54389;BME280;40975;50.390;8.640;2023-03-23T13:36:29;98250.97;;;14.64;86.63
54389;BME280;40975;50.390;8.640;2023-03-23T13:38:56;98246.78;;;14.76;86.15
54389;BME280;40975;50.390;8.640;2023-03-23T13:41:24;98239.78;;;15.11;85.14
54389;BME280;40975;50.390;8.640;2023-03-23T13:43:51;98242.50;;;14.82;86.12
54389;BME280;40975;50.390;8.640;2023-03-23T13:46:29;98235.69;;;14.58;85.53
54389;BME280;40975;50.390;8.640;2023-03-23T13:49:13;98227.53;;;14.59;86.24
54389;BME280;40975;50.390;8.640;2023-03-23T13:54:24;98227.50;;;14.81;86.33
54389;BME280;40975;50.390;8.640;2023-03-23T13:57:00;98237.47;;;15.01;86.19
54389;BME280;40975;50.390;8.640;2023-03-23T14:01:53;98242.63;;;14.45;86.40
54389;BME280;40975;50.390;8.640;2023-03-23T14:04:21;98234.34;;;14.40;86.07
54389;BME280;40975;50.390;8.640;2023-03-23T14:06:48;98249.50;;;14.33;87.10
54389;BME280;40975;50.390;8.640;2023-03-23T14:12:00;98224.63;;;14.33;88.86
54389;BME280;40975;50.390;8.640;2023-03-23T14:14:34;98238.88;;;14.40;88.68
54389;BME280;40975;50.390;8.640;2023-03-23T14:17:12;98242.69;;;14.30;88.78
54389;BME280;40975;50.390;8.640;2023-03-23T14:19:40;98252.09;;;14.26;89.37
54389;BME280;40975;50.390;8.640;2023-03-23T14:22:19;98241.69;;;14.10;88.02
54389;BME280;40975;50.390;8.640;2023-03-23T14:24:44;98241.75;;;14.17;89.17
54389;BME280;40975;50.390;8.640;2023-03-23T14:29:41;98239.25;;;14.15;89.19
54389;BME280;40975;50.390;8.640;2023-03-23T14:32:10;98233.75;;;14.17;87.57
54389;BME280;40975;50.390;8.640;2023-03-23T14:34:37;98239.47;;;14.13;87.14
54389;BME280;40975;50.390;8.640;2023-03-23T14:37:02;98240.53;;;14.19;88.17
54389;BME280;40975;50.390;8.640;2023-03-23T14:39:30;98236.16;;;14.11;87.71
54389;BME280;40975;50.390;8.640;2023-03-23T14:42:03;98242.69;;;14.30;87.74
54389;BME280;40975;50.390;8.640;2023-03-23T14:44:31;98250.75;;;14.37;87.88